Time;durP1;ratioP1;P1;durP2;ratioP2;P2;SDS_P1;SDS_P2;PMS_P1;PMS_P2;Temp;Humidity;BMP_temperature;BMP_pressure;BME280_temperature;BME280_humidity;BME280_pressure;Samples;Min_cycle;Max_cycle;Signal;HPM_P1;HPM_P2
2022/12/18 00:00:32;;;;;;;40.05;19.05;;;;;;;-0.02;56.99;101162.03;7631268;32;37635;-81
2022/12/18 00:04:49;;;;;;;44.05;19.12;;;;;;;0.03;56.95;101169.56;7630663;32;36935;-80
2022/12/18 00:09:05;;;;;;;44.80;20.30;;;;;;;0.02;56.91;101173.25;7631325;32;39158;-79
2022/12/18 00:13:21;;;;;;;47.85;19.33;;;;;;;-0.25;58.24;101194.88;7629250;32;40879;-82
2022/12/18 00:17:37;;;;;;;44.00;20.67;;;;;;;-0.24;58.03;101198.41;7631075;32;37909;-81
2022/12/18 00:21:54;;;;;;;47.80;20.95;;;;;;;-0.18;58.11;101211.12;7631267;32;37503;-82
2022/12/18 00:26:19;;;;;;;41.75;19.23;;;;;;;-0.36;58.65;101213.97;7631553;32;39464;-82
2022/12/18 00:30:35;;;;;;;40.83;19.17;;;;;;;-0.47;58.82;101216.94;7631401;32;40757;-83
2022/12/18 00:34:52;;;;;;;45.78;19.50;;;;;;;-0.53;59.15;101231.84;7631311;32;37930;-82
2022/12/18 00:39:09;;;;;;;41.65;19.55;;;;;;;-0.92;60.35;101232.38;7631162;32;37295;-82
2022/12/18 00:43:26;;;;;;;45.58;19.10;;;;;;;-0.96;60.55;101244.41;7631038;32;39354;-82
2022/12/18 00:47:46;;;;;;;43.97;19.42;;;;;;;-1.04;60.71;101258.59;7631068;32;39907;-82
2022/12/18 00:52:02;;;;;;;41.35;16.77;;;;;;;-1.18;61.08;101257.34;7630600;32;38862;-82
2022/12/18 00:56:18;;;;;;;42.42;19.52;;;;;;;-1.15;60.87;101251.69;7630844;32;37945;-82
2022/12/18 01:00:35;;;;;;;43.83;18.40;;;;;;;-0.79;59.80;101256.87;7632266;32;39790;-81
2022/12/18 01:04:51;;;;;;;38.97;17.70;;;;;;;-1.08;60.62;101259.91;7634026;32;40029;-82
2022/12/18 01:09:07;;;;;;;39.70;18.65;;;;;;;-0.58;58.90;101247.56;7633935;32;37824;-83
2022/12/18 01:13:24;;;;;;;38.22;19.45;;;;;;;-0.71;59.54;101268.59;7633389;32;38042;-82
2022/12/18 01:17:40;;;;;;;37.63;18.23;;;;;;;-0.54;58.85;101273.03;7633786;32;39232;-82
2022/12/18 01:21:57;;;;;;;41.37;18.60;;;;;;;-1.18;61.03;101280.59;7633429;32;40258;-80
2022/12/18 01:26:16;;;;;;;44.03;18.33;;;;;;;-1.22;61.24;101280.06;7633726;32;38744;-82
2022/12/18 01:30:32;;;;;;;42.15;18.20;;;;;;;-1.65;62.02;101279.12;7633619;32;37187;-82
2022/12/18 01:34:49;;;;;;;35.88;16.98;;;;;;;-1.24;61.29;101283.91;7633670;32;39843;-82
2022/12/18 01:39:09;;;;;;;37.03;17.58;;;;;;;-1.87;63.20;101298.31;7633534;32;40638;-81
2022/12/18 01:44:01;;;;;;;42.42;18.15;;;;;;;-1.65;62.65;101292.47;7631951;32;37906;-83
2022/12/18 01:48:17;;;;;;;41.78;17.30;;;;;;;-1.61;62.25;101301.87;7594888;32;37645;-82
2022/12/18 01:52:34;;;;;;;40.28;18.80;;;;;;;-2.00;63.58;101310.22;7633192;32;39297;-81
2022/12/18 01:56:50;;;;;;;51.37;20.95;;;;;;;-1.64;62.69;101301.34;7633319;32;40797;-81
2022/12/18 02:01:07;;;;;;;42.50;18.98;;;;;;;-1.30;61.43;101317.47;7633210;32;37905;-82
2022/12/18 02:06:01;;;;;;;45.78;19.27;;;;;;;-1.40;61.58;101311.37;7633287;32;37046;-82
2022/12/18 02:10:32;;;;;;;40.45;17.52;;;;;;;-1.34;61.60;101316.13;7631634;32;39264;-82
2022/12/18 02:14:50;;;;;;;39.65;17.65;;;;;;;-0.90;59.98;101313.38;7631983;32;39993;-81
2022/12/18 02:19:30;;;;;;;40.50;18.23;;;;;;;-0.58;58.18;101322.56;7632190;32;38039;-80
2022/12/18 02:23:52;;;;;;;49.05;19.23;;;;;;;-0.74;58.14;101333.19;7617872;32;37232;-81
2022/12/18 02:28:13;;;;;;;43.33;20.45;;;;;;;-0.76;58.67;101342.25;7631821;32;39601;-82
2022/12/18 02:32:45;;;;;;;40.72;19.02;;;;;;;-0.79;58.73;101347.09;7631678;32;40582;-81
2022/12/18 02:37:04;;;;;;;46.15;19.20;;;;;;;-0.80;58.50;101340.88;7631740;32;37839;-81
2022/12/18 02:41:21;;;;;;;42.13;19.50;;;;;;;-0.73;58.04;101351.78;7631725;32;37312;-81
2022/12/18 02:45:54;;;;;;;44.60;19.95;;;;;;;-0.82;58.47;101358.13;7632596;32;39130;-81
2022/12/18 02:50:45;;;;;;;42.67;20.60;;;;;;;-0.88;58.76;101364.94;7631834;32;40626;-82
2022/12/18 02:55:30;;;;;;;45.42;20.48;;;;;;;-1.22;60.40;101362.22;7632592;32;37825;-82
2022/12/18 03:00:10;;;;;;;49.30;19.75;;;;;;;-0.89;59.64;101355.22;7623431;32;36994;-81
2022/12/18 03:04:43;;;;;;;45.80;20.58;;;;;;;-1.58;61.84;101372.94;7632660;32;40105;-82
2022/12/18 03:09:02;;;;;;;;;;;;;;;-1.64;62.31;101374.38;7632851;32;40736;-80
2022/12/18 03:13:34;;;;;;;44.80;20.00;;;;;;;-1.47;60.83;101379.87;7632509;32;39125;-80
2022/12/18 03:17:58;;;;;;;43.05;21.23;;;;;;;-1.20;60.15;101385.13;7631285;32;37585;-80
2022/12/18 03:22:15;;;;;;;43.75;21.08;;;;;;;-1.26;60.17;101396.47;7631565;32;39130;-81
2022/12/18 03:26:32;;;;;;;47.85;20.30;;;;;;;-1.30;60.96;101397.75;7630916;32;39872;-81
2022/12/18 03:30:55;;;;;;;44.08;20.73;;;;;;;-1.55;61.49;101404.75;7631013;32;38063;-80
2022/12/18 03:35:13;;;;;;;;;;;;;;;-1.28;61.22;101398.44;7632520;32;37204;-81
2022/12/18 03:39:29;;;;;;;45.75;21.23;;;;;;;-1.42;61.47;101415.03;7632516;32;40110;-81
2022/12/18 03:44:00;;;;;;;46.47;21.33;;;;;;;-1.67;61.84;101417.50;7631831;32;40848;-81
2022/12/18 03:48:37;;;;;;;44.63;20.00;;;;;;;-1.40;61.00;101413.06;7632007;32;37966;-81
2022/12/18 03:53:21;;;;;;;43.97;20.70;;;;;;;-1.32;60.25;101422.00;7631874;32;37211;-81
2022/12/18 03:57:39;;;;;;;44.22;19.95;;;;;;;-1.22;59.79;101421.91;7627507;32;39554;-82
2022/12/18 04:01:57;;;;;;;36.55;18.75;;;;;;;-0.88;58.54;101425.69;7630684;32;40664;-82
2022/12/18 04:06:15;;;;;;;51.17;20.80;;;;;;;-0.82;57.78;101433.94;7630650;32;38249;-83
2022/12/18 04:10:31;;;;;;;48.80;20.42;;;;;;;-0.81;57.56;101430.25;7630321;32;37267;-81
2022/12/18 04:14:47;;;;;;;42.30;20.70;;;;;;;-0.82;57.90;101433.94;7630419;32;40026;-82
2022/12/18 04:19:04;;;;;;;51.20;20.75;;;;;;;-0.92;57.86;101438.53;7631323;32;39997;-83
2022/12/18 04:23:20;;;;;;;46.58;19.52;;;;;;;-1.20;58.15;101443.19;7630852;32;38905;-82
2022/12/18 04:27:37;;;;;;;45.35;20.23;;;;;;;-0.92;57.84;101454.59;7637057;32;37283;-77
2022/12/18 04:31:54;;;;;;;42.28;19.08;;;;;;;-0.98;57.83;101450.72;7640560;32;39637;-81
2022/12/18 04:36:12;;;;;;;47.47;20.75;;;;;;;-0.96;57.79;101459.44;7631380;32;40155;-82
2022/12/18 04:40:28;;;;;;;43.97;19.35;;;;;;;-1.32;58.45;101472.00;7624853;32;210076;-81
2022/12/18 04:44:44;;;;;;;45.35;20.73;;;;;;;-1.40;58.59;101478.09;7630945;32;38547;-81
2022/12/18 04:49:00;;;;;;;41.78;19.73;;;;;;;-1.63;59.01;101476.88;7630623;32;39265;-82
2022/12/18 04:53:16;;;;;;;41.30;18.90;;;;;;;-1.36;58.52;101484.00;7630553;32;41149;-81
2022/12/18 04:57:33;;;;;;;39.47;19.37;;;;;;;-1.30;58.17;101488.75;7630686;32;37663;-81
2022/12/18 05:01:49;;;;;;;37.78;18.55;;;;;;;-1.68;59.09;101493.34;7630734;32;36897;-81
2022/12/18 05:06:06;;;;;;;40.97;18.95;;;;;;;-1.70;59.31;101503.38;7630612;32;40251;-82
2022/12/18 05:10:23;;;;;;;41.80;18.87;;;;;;;-1.62;59.06;101506.12;7629216;32;39866;-80
2022/12/18 05:14:39;;;;;;;46.20;18.58;;;;;;;-1.32;58.05;101502.28;7629054;32;37641;-82
2022/12/18 05:18:55;;;;;;;37.88;17.60;;;;;;;-1.30;58.03;101503.97;7629879;32;37006;-79
2022/12/18 05:23:11;;;;;;;40.55;17.87;;;;;;;-1.23;57.82;101508.53;7630131;32;40080;-82
2022/12/18 05:27:28;;;;;;;44.88;19.45;;;;;;;-1.16;57.66;101509.59;7630024;32;39954;-82
2022/12/18 05:31:44;;;;;;;40.72;19.62;;;;;;;-1.49;58.22;101504.94;7629795;32;38761;-82
2022/12/18 05:36:02;;;;;;;46.80;20.25;;;;;;;-1.71;58.63;101512.38;7629813;32;37433;-83
2022/12/18 05:40:18;;;;;;;43.03;20.83;;;;;;;-1.35;57.67;101521.28;7628260;32;40252;-83
2022/12/18 05:44:34;;;;;;;45.65;20.48;;;;;;;-1.21;57.19;101528.00;7628907;32;39994;-82
2022/12/18 05:48:50;;;;;;;44.40;20.45;;;;;;;-1.33;57.55;101537.19;7633189;32;38010;-82
2022/12/18 05:53:07;;;;;;;52.17;20.23;;;;;;;-1.24;57.06;101533.62;7633420;32;37295;-82
2022/12/18 05:57:23;;;;;;;43.35;19.30;;;;;;;-1.12;56.84;101544.09;7633479;32;39407;-81
2022/12/18 06:01:40;;;;;;;40.80;19.70;;;;;;;-1.25;57.21;101560.56;7633417;32;39919;-82
2022/12/18 06:05:56;;;;;;;41.47;18.67;;;;;;;-1.52;57.77;101555.06;7633167;32;37915;-82
2022/12/18 06:10:13;;;;;;;36.13;17.67;;;;;;;-1.58;58.11;101555.66;7633091;32;37839;-83
2022/12/18 06:14:30;;;;;;;41.90;18.65;;;;;;;-1.62;58.17;101558.78;7632743;32;40149;-82
2022/12/18 06:18:46;;;;;;;39.38;18.58;;;;;;;-1.89;58.66;101569.31;7632773;32;40075;-82
2022/12/18 06:23:03;;;;;;;39.13;19.42;;;;;;;-1.58;57.93;101569.03;7633021;32;37926;-82
2022/12/18 06:27:20;;;;;;;42.45;19.37;;;;;;;-1.77;58.48;101561.94;7632759;32;37919;-82
2022/12/18 06:31:37;;;;;;;49.38;20.65;;;;;;;-1.75;58.49;101575.19;7632979;32;40142;-82
2022/12/18 06:35:53;;;;;;;48.83;21.65;;;;;;;-1.55;57.98;101582.13;7632882;32;40916;-82
2022/12/18 06:40:15;;;;;;;42.57;19.93;;;;;;;-1.77;58.62;101580.66;7632635;32;37961;-83
2022/12/18 06:44:32;;;;;;;50.60;20.48;;;;;;;-1.55;58.20;101586.63;7632352;32;38037;-82
2022/12/18 06:48:49;;;;;;;44.58;21.02;;;;;;;-1.62;58.59;101598.88;7632516;32;39483;-81
2022/12/18 06:53:06;;;;;;;43.15;20.00;;;;;;;-1.68;58.54;101607.53;7632610;32;39896;-81
2022/12/18 06:57:22;;;;;;;42.75;20.55;;;;;;;-1.53;57.97;101601.53;7631673;32;37985;-82
2022/12/18 07:01:44;;;;;;;41.40;20.88;;;;;;;-1.32;57.44;101611.97;7632536;32;37184;-82
2022/12/18 07:06:18;;;;;;;51.10;22.08;;;;;;;-1.49;57.87;101619.97;7632598;32;39464;-81
2022/12/18 07:10:42;;;;;;;47.72;21.92;;;;;;;-1.30;57.47;101633.25;7631366;32;39751;-81
2022/12/18 07:15:04;;;;;;;51.50;21.77;;;;;;;-1.58;58.14;101635.91;7632397;32;38841;-82
2022/12/18 07:19:20;;;;;;;49.13;21.92;;;;;;;-1.63;58.66;101654.22;7632474;32;37528;-83
2022/12/18 07:23:37;;;;;;;60.85;29.33;;;;;;;-1.38;58.49;101644.72;7632367;32;39307;-82
2022/12/18 07:27:54;;;;;;;52.72;23.77;;;;;;;-1.38;58.67;101650.06;7632191;32;40826;-81
2022/12/18 07:32:10;;;;;;;48.38;22.42;;;;;;;-1.38;58.65;101657.22;7631989;32;38012;-83
2022/12/18 07:36:27;;;;;;;51.90;21.40;;;;;;;-1.35;58.47;101683.69;7631134;32;38329;-79
2022/12/18 07:40:43;;;;;;;46.78;21.05;;;;;;;-1.61;59.20;101680.84;7630964;32;40060;-80
2022/12/18 07:45:01;;;;;;;48.90;21.80;;;;;;;-1.16;58.47;101691.63;7630863;32;39907;-81
2022/12/18 07:49:17;;;;;;;49.75;20.17;;;;;;;-1.43;59.19;101700.50;7632045;32;38715;-79
2022/12/18 07:53:34;;;;;;;43.05;20.40;;;;;;;-1.03;61.61;101703.84;7631495;32;37871;-75
2022/12/18 07:57:50;;;;;;;48.80;22.33;;;;;;;-0.73;62.56;101704.50;7631979;32;39504;-83
2022/12/18 08:02:14;;;;;;;49.20;23.30;;;;;;;-0.83;58.70;101717.94;7631885;32;40572;-81
2022/12/18 08:06:30;;;;;;;53.83;23.08;;;;;;;-0.33;57.51;101722.00;7630696;32;37958;-82
2022/12/18 08:10:47;;;;;;;47.58;23.05;;;;;;;-0.10;57.38;101730.44;7630478;32;37140;-81
2022/12/18 08:15:03;;;;;;;51.55;24.00;;;;;;;-0.10;57.24;101728.59;7630424;32;39897;-82
2022/12/18 08:19:19;;;;;;;52.50;24.30;;;;;;;-0.09;57.79;101722.22;7630247;32;39809;-81
2022/12/18 08:23:36;;;;;;;62.55;23.73;;;;;;;0.03;57.30;101730.88;7631144;32;37510;-82
2022/12/18 08:27:57;;;;;;;49.85;22.45;;;;;;;0.11;56.91;101730.09;7630846;32;37389;-81
2022/12/18 08:32:14;;;;;;;50.12;25.27;;;;;;;0.49;56.67;101733.41;7630145;32;39428;-81
2022/12/18 08:36:30;;;;;;;57.83;25.37;;;;;;;0.60;56.45;101737.66;7630825;32;40001;-82
2022/12/18 08:40:46;;;;;;;58.63;25.27;;;;;;;0.62;56.50;101739.19;7631454;32;39204;-83
2022/12/18 08:45:03;;;;;;;52.15;24.37;;;;;;;0.82;55.38;101744.31;7630865;32;37792;-82
2022/12/18 08:49:20;;;;;;;60.12;27.42;;;;;;;1.13;55.88;101748.16;7631304;32;39562;-82
2022/12/18 08:53:36;;;;;;;60.33;26.25;;;;;;;1.39;55.29;101755.31;7630960;32;40132;-82
2022/12/18 08:57:53;;;;;;;59.13;26.83;;;;;;;1.51;55.23;101755.84;7630467;32;37928;-82
2022/12/18 09:02:13;;;;;;;62.97;28.83;;;;;;;1.76;53.17;101748.69;7630174;32;38211;-83
2022/12/18 09:06:29;;;;;;;65.22;28.20;;;;;;;1.62;54.94;101765.44;7630129;32;39294;-82
2022/12/18 09:10:48;;;;;;;48.92;23.27;;;;;;;1.82;53.79;101766.84;7630394;32;40035;-82
2022/12/18 09:15:05;;;;;;;47.17;21.77;;;;;;;1.30;53.56;101767.03;7630048;32;37899;-82
2022/12/18 09:19:21;;;;;;;50.90;22.95;;;;;;;1.04;54.58;101784.06;7630422;32;37297;-82
2022/12/18 09:23:37;;;;;;;46.17;22.42;;;;;;;1.18;54.49;101777.25;7633709;32;39322;-82
2022/12/18 09:27:54;;;;;;;54.92;23.30;;;;;;;1.36;53.97;101779.81;7633711;32;39946;-83
2022/12/18 09:32:10;;;;;;;45.95;22.90;;;;;;;1.44;53.70;101787.09;7633390;32;38874;-82
2022/12/18 09:36:26;;;;;;;45.88;21.40;;;;;;;1.71;53.48;101777.94;7634093;32;37488;-82
2022/12/18 09:40:51;;;;;;;51.70;23.50;;;;;;;1.62;52.35;101773.50;7633548;32;39150;-81
2022/12/18 09:45:11;;;;;;;53.17;21.40;;;;;;;2.20;51.93;101771.75;7627905;32;39868;-83
2022/12/18 09:49:31;;;;;;;54.42;23.48;;;;;;;2.39;53.18;101778.66;7639609;32;38740;-82
2022/12/18 09:53:54;;;;;;;52.58;24.20;;;;;;;2.81;53.88;101770.34;7631178;32;36940;-84
2022/12/18 09:58:29;;;;;;;49.15;22.27;;;;;;;3.13;49.52;101752.37;7605834;32;39388;-84
2022/12/18 10:02:46;;;;;;;51.40;22.35;;;;;;;3.63;48.40;101746.75;7607069;32;40080;-83
2022/12/18 10:07:14;;;;;;;51.53;23.70;;;;;;;4.11;46.63;101756.34;7632017;32;38160;-86
2022/12/18 10:11:47;;;;;;;50.95;22.85;;;;;;;4.02;47.11;101743.94;7632723;32;37332;-84
2022/12/18 10:16:15;;;;;;;57.05;22.92;;;;;;;4.46;45.51;101742.37;7631485;32;39312;-85
2022/12/18 10:20:46;;;;;;;47.28;23.60;;;;;;;4.65;45.29;101741.00;7631503;32;41347;-84
2022/12/18 10:25:31;;;;;;;47.53;22.83;;;;;;;4.82;44.68;101747.09;7632324;32;37432;-84
2022/12/18 10:29:48;;;;;;;50.88;22.87;;;;;;;4.40;45.27;101749.38;7631160;32;38261;-84
2022/12/18 10:34:09;;;;;;;55.83;22.70;;;;;;;4.93;45.31;101743.91;7632029;32;40392;-84
2022/12/18 10:38:31;;;;;;;51.13;23.83;;;;;;;5.04;43.88;101745.31;7631999;32;39708;-85
2022/12/18 10:43:02;;;;;;;49.90;23.25;;;;;;;5.61;42.84;101741.84;7632810;32;37586;-86
2022/12/18 10:47:19;;;;;;;55.53;23.20;;;;;;;5.44;42.68;101749.34;7631949;32;37114;-84
2022/12/18 10:51:37;;;;;;;51.67;23.25;;;;;;;5.41;42.03;101740.78;7632860;32;39092;-83
2022/12/18 10:55:55;;;;;;;52.78;25.33;;;;;;;5.49;42.33;101743.38;7631728;32;39717;-83
2022/12/18 11:00:30;;;;;;;53.00;25.23;;;;;;;5.86;41.55;101737.94;7631801;32;36933;-83
2022/12/18 11:04:53;;;;;;;53.70;23.27;;;;;;;5.84;41.56;101733.56;7632720;32;37305;-82
2022/12/18 11:09:24;;;;;;;52.75;22.85;;;;;;;6.36;41.49;101728.87;7632148;32;40009;-87
2022/12/18 11:13:40;;;;;;;53.08;23.40;;;;;;;6.71;39.11;101718.06;7632596;32;39942;-85
2022/12/18 11:17:56;;;;;;;46.97;22.08;;;;;;;6.79;41.00;101724.34;7632615;32;38739;-81
2022/12/18 11:22:23;;;;;;;50.88;21.95;;;;;;;7.21;38.97;101722.47;7632571;32;37256;-85
2022/12/18 11:26:39;;;;;;;50.03;23.20;;;;;;;7.19;39.92;101717.25;7631415;32;39149;-82
2022/12/18 11:31:28;;;;;;;51.37;22.80;;;;;;;7.43;38.51;101715.88;7632386;32;39960;-82
2022/12/18 11:35:59;;;;;;;53.15;24.95;;;;;;;7.06;37.96;101718.03;7632352;32;38196;-82
2022/12/18 11:40:24;;;;;;;57.35;24.50;;;;;;;7.59;39.18;101700.25;7632320;32;37444;-82
2022/12/18 11:44:46;;;;;;;48.10;23.10;;;;;;;8.14;37.43;101700.12;7630886;32;39452;-83
2022/12/18 11:49:12;;;;;;;47.73;23.90;;;;;;;8.44;36.49;101698.69;7631203;32;39803;-83
2022/12/18 11:53:30;;;;;;;54.17;24.77;;;;;;;8.25;37.29;101699.50;7630652;32;38524;-86
2022/12/18 11:58:02;;;;;;;51.45;24.87;;;;;;;8.67;34.25;101699.28;7630914;32;37514;-83
2022/12/18 12:02:21;;;;;;;50.63;23.65;;;;;;;9.01;35.53;101682.62;7632262;32;39150;-84
2022/12/18 12:07:08;;;;;;;46.45;21.10;;;;;;;9.20;34.16;101685.50;7631416;32;40741;-83
2022/12/18 12:11:56;;;;;;;43.65;22.10;;;;;;;9.50;33.27;101691.22;7631858;32;37935;-83
2022/12/18 12:16:45;;;;;;;43.22;20.10;;;;;;;9.63;32.96;101679.41;7605715;32;38527;-82
2022/12/18 12:21:08;;;;;;;42.58;20.98;;;;;;;9.65;30.58;101680.00;7611560;32;39298;-82
2022/12/18 12:25:43;;;;;;;39.83;17.77;;;;;;;10.25;31.49;101674.09;7631600;32;39999;-82
2022/12/18 12:29:59;;;;;;;40.65;19.60;;;;;;;9.47;30.34;101682.62;7631578;32;38934;-83
2022/12/18 12:34:33;;;;;;;45.72;20.15;;;;;;;9.60;29.65;101674.37;7631339;32;37950;-82
2022/12/18 12:39:05;;;;;;;44.08;19.48;;;;;;;9.49;28.94;101683.25;7630006;32;40323;-80
2022/12/18 12:43:33;;;;;;;40.60;19.30;;;;;;;10.15;30.23;101685.50;7629980;32;39928;-80
2022/12/18 12:47:51;;;;;;;55.20;26.62;;;;;;;10.45;30.27;101695.78;7631063;32;38784;-74
2022/12/18 12:52:20;;;;;;;41.88;19.40;;;;;;;10.96;29.65;101692.91;7629486;32;37988;-80
2022/12/18 12:57:01;;;;;;;38.58;20.00;;;;;;;10.83;28.08;101699.34;7632681;32;39326;-81
2022/12/18 13:01:41;;;;;;;43.85;20.73;;;;;;;10.75;28.05;101714.13;7644313;32;39982;-81
2022/12/18 13:06:03;;;;;;;37.88;19.52;;;;;;;11.12;29.30;101700.47;7630145;32;38862;-81
2022/12/18 13:10:20;;;;;;;42.38;19.40;;;;;;;11.34;27.78;101711.75;7621801;32;37191;-77
2022/12/18 13:14:39;;;;;;;39.97;18.90;;;;;;;11.56;27.40;101706.62;7634210;32;39083;-85
2022/12/18 13:18:58;;;;;;;36.83;19.00;;;;;;;12.16;26.03;101715.88;7633216;32;40783;-85
2022/12/18 13:23:23;;;;;;;44.63;19.75;;;;;;;12.72;25.88;101717.19;7640496;32;38757;-83
2022/12/18 13:28:15;;;;;;;47.53;23.17;;;;;;;13.63;23.40;101721.28;7642089;32;37883;-82
2022/12/18 13:36:09;;;;;;;39.72;20.42;;;;;;;18.36;18.60;101704.44;7892814;31;332559;-87
2022/12/18 13:40:40;;;;;;;42.47;19.70;;;;;;;19.63;16.49;101704.28;7869468;31;39695;-85
2022/12/18 13:44:56;;;;;;;41.50;21.80;;;;;;;20.74;15.38;101705.59;7837188;31;38260;-85
2022/12/18 13:49:12;;;;;;;39.63;19.35;;;;;;;21.43;14.34;101705.31;7839691;32;38250;-85
2022/12/18 13:53:33;;;;;;;42.33;21.42;;;;;;;22.10;13.79;101705.13;7839980;31;38983;-83
2022/12/18 13:58:02;;;;;;;39.05;20.80;;;;;;;22.37;13.08;101707.22;7839145;32;39963;-73
2022/12/18 14:02:23;;;;;;;39.85;21.48;;;;;;;22.54;13.23;101708.56;7839772;31;38735;-71
2022/12/18 14:06:40;;;;;;;39.83;22.65;;;;;;;22.87;12.80;101707.38;7840414;31;37979;-85
2022/12/18 14:10:56;;;;;;;41.00;23.80;;;;;;;22.81;12.84;101708.59;7839663;31;39856;-83
2022/12/18 14:15:25;;;;;;;41.20;22.48;;;;;;;22.45;13.35;101712.03;7840316;32;39844;-85
2022/12/18 14:19:46;;;;;;;38.72;21.80;;;;;;;22.01;13.46;101710.56;7850371;32;37772;-79
2022/12/18 14:24:08;;;;;;;43.15;23.67;;;;;;;21.22;13.83;101713.09;7848024;32;36627;-86
2022/12/18 14:28:26;;;;;;;40.53;22.92;;;;;;;19.04;16.23;101736.34;7847093;31;40258;-84
2022/12/18 14:32:42;;;;;;;41.50;23.02;;;;;;;17.92;17.55;101735.34;7843301;31;40806;-87
2022/12/18 14:36:58;;;;;;;45.95;24.73;;;;;;;16.64;19.43;101746.63;7840813;32;38124;-87
2022/12/18 14:41:16;;;;;;;46.63;23.38;;;;;;;14.78;21.53;101760.28;7840614;32;36999;-81
2022/12/18 14:45:41;;;;;;;49.05;24.23;;;;;;;12.68;24.51;101775.38;7828365;32;38931;-84
2022/12/18 14:49:59;;;;;;;48.13;23.83;;;;;;;11.28;27.22;101791.88;7819912;32;40656;-83
2022/12/18 14:54:18;;;;;;;50.40;23.65;;;;;;;9.37;30.69;101803.72;7820764;32;37912;-82
2022/12/18 14:58:34;;;;;;;44.28;21.73;;;;;;;8.21;33.02;101801.47;7821081;32;36144;-83
2022/12/18 15:02:59;;;;;;;55.63;24.20;;;;;;;7.63;34.21;101810.94;7822728;32;39125;-85
2022/12/18 15:07:21;;;;;;;50.15;22.85;;;;;;;6.72;36.17;101825.44;7820872;32;39896;-83
2022/12/18 15:11:40;;;;;;;49.10;23.33;;;;;;;6.24;37.32;101833.34;7819506;32;38516;-82
2022/12/18 15:16:01;;;;;;;52.25;22.17;;;;;;;5.55;39.26;101836.47;7820621;32;36938;-82
2022/12/18 15:20:17;;;;;;;52.88;22.40;;;;;;;5.07;40.25;101847.66;7820795;32;40055;-81
2022/12/18 15:24:34;;;;;;;52.10;24.77;;;;;;;4.94;40.95;101852.88;7819343;32;40813;-83
2022/12/18 15:28:52;;;;;;;54.88;24.50;;;;;;;4.40;42.30;101856.53;7819266;32;38098;-84
2022/12/18 15:33:24;;;;;;;59.42;25.05;;;;;;;4.22;42.85;101854.97;7819090;32;36139;-84
2022/12/18 15:37:42;;;;;;;56.65;24.55;;;;;;;4.16;43.06;101871.03;7819422;32;39148;-85
2022/12/18 15:46:36;;;;;;;62.33;27.27;;;;;;;3.94;43.47;101874.37;7822255;32;38540;-81
2022/12/18 15:50:57;;;;;;;59.15;25.35;;;;;;;3.15;45.81;101889.66;7827732;32;37490;-83
2022/12/18 15:59:52;;;;;;;66.78;28.27;;;;;;;3.12;45.69;101900.78;7819831;32;40907;-85
2022/12/18 16:04:13;;;;;;;56.35;25.42;;;;;;;2.97;46.07;101909.56;7820471;32;37622;-85
2022/12/18 16:08:30;;;;;;;50.83;24.33;;;;;;;3.32;45.51;101912.06;7822335;32;37285;-85
2022/12/18 16:12:46;;;;;;;50.17;22.02;;;;;;;2.91;46.71;101920.19;7820649;32;39225;-85
2022/12/18 16:17:08;;;;;;;51.45;23.50;;;;;;;2.53;47.60;101917.13;7819981;32;39631;-84
2022/12/18 16:21:24;;;;;;;58.87;24.17;;;;;;;2.78;47.03;101918.84;7818681;32;38656;-85
2022/12/18 16:25:48;;;;;;;51.75;25.65;;;;;;;2.50;47.56;101923.72;7820428;32;37224;-83
2022/12/18 16:30:05;;;;;;;67.53;24.98;;;;;;;2.34;47.77;101934.44;7821012;32;39936;-83
2022/12/18 16:34:33;;;;;;;53.60;23.55;;;;;;;2.41;47.84;101940.84;7821184;32;40756;-82
2022/12/18 16:38:51;;;;;;;56.37;23.58;;;;;;;2.29;48.78;101944.84;7819710;32;37967;-81
2022/12/18 16:43:07;;;;;;;50.10;22.67;;;;;;;2.50;47.48;101942.56;7819660;32;37766;-83
2022/12/18 16:47:25;;;;;;;50.85;23.62;;;;;;;2.42;47.48;101942.53;7819575;32;38092;-82
2022/12/18 16:51:42;;;;;;;49.50;23.00;;;;;;;2.00;48.43;101933.50;7819819;32;40086;-82
2022/12/18 16:55:58;;;;;;;51.13;23.98;;;;;;;2.09;48.01;101942.47;7839731;31;38875;-83
2022/12/18 17:00:15;;;;;;;54.03;25.85;;;;;;;1.54;49.37;101942.88;7837718;31;38090;-83
2022/12/18 17:04:31;;;;;;;58.78;26.20;;;;;;;1.47;49.77;101932.75;7845936;31;39703;-83
2022/12/18 17:09:02;;;;;;;54.13;23.20;;;;;;;1.49;49.77;101932.59;7845627;31;39958;-82
2022/12/18 17:13:18;;;;;;;52.22;24.37;;;;;;;1.37;49.65;101931.19;7845293;31;38194;-81
2022/12/18 17:17:41;;;;;;;53.87;24.52;;;;;;;1.47;48.98;101937.31;7845791;31;37144;-82
2022/12/18 17:22:00;;;;;;;51.72;22.33;;;;;;;1.59;48.85;101935.19;7830989;31;39149;-83
2022/12/18 17:26:16;;;;;;;54.45;22.52;;;;;;;1.45;49.28;101929.38;7831288;31;40811;-84
2022/12/18 17:30:32;;;;;;;54.25;24.00;;;;;;;1.30;49.61;101925.59;7833106;31;37843;-81
2022/12/18 17:34:48;;;;;;;59.03;23.62;;;;;;;1.18;50.30;101929.56;7846816;31;37110;-83
2022/12/18 17:39:06;;;;;;;55.15;23.42;;;;;;;1.39;50.16;101940.75;7846076;31;38839;-82
2022/12/18 17:43:22;;;;;;;54.08;24.95;;;;;;;1.26;50.01;101934.97;7845883;31;40918;-82
2022/12/18 17:47:38;;;;;;;58.72;23.83;;;;;;;1.15;50.31;101935.22;7845677;31;37970;-81
2022/12/18 17:51:54;;;;;;;53.03;24.42;;;;;;;1.30;49.57;101930.97;7845748;31;37086;-81
2022/12/18 17:56:15;;;;;;;52.38;24.75;;;;;;;1.24;49.75;101934.28;7857483;31;39055;-76
2022/12/18 18:00:31;;;;;;;56.05;26.15;;;;;;;0.54;52.17;101941.28;7852027;31;40230;-81
2022/12/18 18:04:48;;;;;;;53.08;24.60;;;;;;;0.54;52.55;101943.13;7845588;31;38744;-82
2022/12/18 18:09:07;;;;;;;58.55;25.40;;;;;;;1.15;50.54;101949.50;7845475;31;36240;-82
2022/12/18 18:18:06;;;;;;;63.83;27.02;;;;;;;0.90;51.29;101941.25;7832891;31;40154;-80
2022/12/18 18:22:23;;;;;;;56.67;25.00;;;;;;;0.62;51.94;101940.53;7831639;31;37753;-80
2022/12/18 18:26:40;;;;;;;58.38;23.92;;;;;;;0.28;53.16;101951.91;7821322;32;37871;-80
2022/12/18 18:30:56;;;;;;;56.60;24.25;;;;;;;0.42;52.55;101963.97;7820050;32;39771;-80
2022/12/18 18:35:13;;;;;;;53.05;22.30;;;;;;;0.22;54.34;101962.41;7826095;31;40647;-81
2022/12/18 18:39:49;;;;;;;65.70;27.15;;;;;;;0.45;52.18;101963.69;7848215;31;38214;-82
2022/12/18 18:44:06;;;;;;;52.92;26.62;;;;;;;0.16;53.22;101975.44;7839228;31;37114;-84
2022/12/18 18:48:22;;;;;;;62.08;23.12;;;;;;;0.45;53.04;101978.91;7846909;31;39262;-82
2022/12/18 18:52:40;;;;;;;51.15;23.83;;;;;;;0.41;52.28;101974.84;7848370;31;38926;-72
2022/12/18 18:56:59;;;;;;;56.37;23.60;;;;;;;0.17;65.89;101971.75;7837307;31;36011;-72
2022/12/18 19:01:35;;;;;;;50.65;23.80;;;;;;;0.44;59.96;101975.41;7821264;32;37206;-84
2022/12/18 19:05:58;;;;;;;55.17;23.48;;;;;;;0.67;53.60;101983.88;7822666;31;39100;-84
2022/12/18 19:10:14;;;;;;;;;;;;;;;0.62;52.33;101985.28;7821500;32;40028;-85
2022/12/18 19:14:30;;;;;;;53.65;22.62;;;;;;;0.49;51.77;101996.41;7821779;32;39057;-85
2022/12/18 19:18:47;;;;;;;49.67;22.10;;;;;;;0.21;52.51;102004.50;7823862;31;36878;-82
2022/12/18 19:23:03;;;;;;;53.72;23.83;;;;;;;0.10;52.67;102010.03;7848022;31;39875;-82
2022/12/18 19:27:20;;;;;;;59.33;24.52;;;;;;;-0.13;53.17;102025.69;7847942;31;39881;-82
2022/12/18 19:31:36;;;;;;;49.30;23.67;;;;;;;-0.18;53.49;102015.38;7847790;31;38799;-83
2022/12/18 19:35:52;;;;;;;58.87;23.40;;;;;;;-0.67;55.19;102020.00;7842525;31;37097;-81
2022/12/18 19:40:09;;;;;;;51.60;21.90;;;;;;;-0.50;54.98;102021.97;7820301;32;38912;-82
2022/12/18 19:44:27;;;;;;;52.78;21.20;;;;;;;-0.24;54.01;102027.53;7820169;32;38866;-82
2022/12/18 19:48:44;;;;;;;48.30;20.05;;;;;;;-0.18;53.38;102036.84;7826411;31;38710;-80
2022/12/18 19:53:01;;;;;;;43.28;20.50;;;;;;;-0.11;53.18;102023.69;7847059;31;37967;-83
2022/12/18 19:57:20;;;;;;;48.63;22.00;;;;;;;-0.54;53.98;102031.28;7847543;31;39812;-82
2022/12/18 20:01:37;;;;;;;44.05;21.92;;;;;;;-0.40;53.84;102028.16;7847178;31;39703;-82
2022/12/18 20:05:53;;;;;;;50.85;22.15;;;;;;;-0.29;53.61;102043.22;7846667;31;37981;-82
2022/12/18 20:10:12;;;;;;;52.83;24.48;;;;;;;-0.46;54.04;102034.09;7845783;31;37115;-81